Time;durP1;ratioP1;P1;durP2;ratioP2;P2;SDS_P1;SDS_P2;PMS_P1;PMS_P2;Temp;Humidity;BMP_temperature;BMP_pressure;BME280_temperature;BME280_humidity;BME280_pressure;Samples;Min_cycle;Max_cycle;Signal;HPM_P1;HPM_P2
2022/10/19 00:00:17;;;;;;;0.10;0.10;;;;;;;6.24;100.00;102849.03;5067319;28;20024;-71
2022/10/19 00:02:42;;;;;;;0.10;0.10;;;;;;;6.12;100.00;102836.06;5044676;28;20066;-71
2022/10/19 00:05:07;;;;;;;0.10;0.10;;;;;;;6.07;100.00;102840.63;5044824;28;20043;-71
2022/10/19 00:07:33;;;;;;;0.10;0.10;;;;;;;6.14;100.00;102853.75;5064846;28;20024;-71
2022/10/19 00:09:58;;;;;;;0.10;0.10;;;;;;;6.13;100.00;102861.81;5063070;28;20081;-71
2022/10/19 00:12:24;;;;;;;0.00;0.00;;;;;;;6.12;100.00;102849.41;5063520;28;20129;-71
2022/10/19 00:14:49;;;;;;;0.00;0.00;;;;;;;6.14;100.00;102844.91;5043194;28;20028;-71
2022/10/19 00:17:15;;;;;;;0.10;0.10;;;;;;;6.06;100.00;102837.09;5063846;28;20684;-71
2022/10/19 00:19:40;;;;;;;0.00;0.00;;;;;;;6.07;100.00;102841.53;5067908;28;20028;-71
2022/10/19 00:22:05;;;;;;;0.10;0.10;;;;;;;6.00;100.00;102832.78;5061035;28;20068;-71
2022/10/19 00:24:31;;;;;;;0.10;0.10;;;;;;;5.95;100.00;102840.03;5061998;28;20067;-71
2022/10/19 00:26:56;;;;;;;0.10;0.10;;;;;;;5.96;100.00;102840.88;5049822;28;20024;-71
2022/10/19 00:29:21;;;;;;;0.10;0.10;;;;;;;5.93;100.00;102838.28;5067631;28;20028;-70
2022/10/19 00:31:50;;;;;;;0.10;0.10;;;;;;;5.95;100.00;102844.47;5062221;28;20629;-71
2022/10/19 00:34:16;;;;;;;0.00;0.00;;;;;;;5.92;100.00;102853.44;5061941;28;20017;-71
2022/10/19 00:36:42;;;;;;;0.10;0.10;;;;;;;5.90;100.00;102844.59;5049562;28;20034;-71
2022/10/19 00:39:11;;;;;;;0.10;0.10;;;;;;;5.71;100.00;102815.72;5047879;28;20031;-71
2022/10/19 00:41:37;;;;;;;0.10;0.10;;;;;;;5.74;100.00;102827.22;5046231;28;20071;-71
2022/10/19 00:44:28;;;;;;;0.00;0.00;;;;;;;5.83;100.00;102859.00;5043548;28;20408;-71
2022/10/19 00:46:58;;;;;;;0.10;0.10;;;;;;;5.78;100.00;102858.22;5063032;28;20047;-71
2022/10/19 00:49:26;;;;;;;0.00;0.00;;;;;;;5.74;100.00;102856.53;5046724;28;20051;-71
2022/10/19 00:51:54;;;;;;;0.00;0.00;;;;;;;5.69;100.00;102849.53;5045227;28;20036;-71
2022/10/19 00:54:20;;;;;;;0.00;0.00;;;;;;;5.70;100.00;102855.75;5035227;28;20708;-71
2022/10/19 00:56:47;;;;;;;0.10;0.10;;;;;;;5.70;100.00;102848.63;5049286;28;20028;-71
2022/10/19 00:59:14;;;;;;;0.00;0.00;;;;;;;5.67;100.00;102842.50;5056987;28;20028;-71
2022/10/19 01:01:41;;;;;;;0.10;0.10;;;;;;;5.56;100.00;102827.66;5046517;28;20113;-71
2022/10/19 01:04:07;;;;;;;0.10;0.10;;;;;;;5.70;100.00;102845.09;5032776;28;20529;-71
2022/10/19 01:06:34;;;;;;;0.10;0.10;;;;;;;5.53;100.00;102826.84;5067791;28;20074;-71
2022/10/19 01:08:59;;;;;;;0.10;0.10;;;;;;;5.65;100.00;102839.91;5046825;28;20033;-71
2022/10/19 01:11:37;;;;;;;0.00;0.00;;;;;;;5.63;100.00;102849.72;5045010;28;20094;-71
2022/10/19 01:14:30;;;;;;;0.10;0.10;;;;;;;5.47;100.00;102846.53;5066313;28;20033;-71
2022/10/19 01:17:16;;;;;;;0.10;0.10;;;;;;;5.25;100.00;102830.19;5067255;28;20041;-71
2022/10/19 01:20:12;;;;;;;0.10;0.10;;;;;;;5.27;100.00;102839.03;5065557;28;20031;-71
2022/10/19 01:22:56;;;;;;;0.10;0.10;;;;;;;5.20;100.00;102834.75;5068143;28;20480;-71
2022/10/19 01:25:26;;;;;;;0.10;0.10;;;;;;;5.18;100.00;102841.88;5030194;28;20036;-71
2022/10/19 01:28:14;;;;;;;0.00;0.00;;;;;;;5.13;100.00;102834.00;5067499;28;20472;-70
2022/10/19 01:30:59;;;;;;;0.00;0.00;;;;;;;4.99;100.00;102828.13;5047778;28;20032;-71
2022/10/19 01:33:34;;;;;;;0.10;0.10;;;;;;;4.97;100.00;102824.63;5065243;28;20032;-71
2022/10/19 01:36:25;;;;;;;0.10;0.10;;;;;;;5.04;100.00;102824.44;5050642;28;20657;-71
2022/10/19 01:38:56;;;;;;;0.00;0.00;;;;;;;5.15;100.00;102829.53;5030889;28;20039;-71
2022/10/19 01:41:33;;;;;;;0.10;0.10;;;;;;;5.18;100.00;102828.56;5046271;28;20072;-70
2022/10/19 01:44:02;;;;;;;0.10;0.10;;;;;;;5.15;100.00;102818.88;5049221;28;20108;-71
2022/10/19 01:46:49;;;;;;;0.22;0.10;;;;;;;5.08;100.00;102822.59;5067853;28;20047;-71
2022/10/19 01:49:19;;;;;;;0.10;0.10;;;;;;;4.99;100.00;102823.66;5063894;28;20029;-71
2022/10/19 01:51:48;;;;;;;0.10;0.10;;;;;;;4.93;100.00;102806.06;5048907;28;20016;-71
2022/10/19 01:54:15;;;;;;;0.10;0.10;;;;;;;5.02;100.00;102810.28;5047279;28;20029;-71
2022/10/19 01:56:42;;;;;;;0.10;0.10;;;;;;;4.97;100.00;102790.88;5051129;28;20499;-71
2022/10/19 01:59:08;;;;;;;0.10;0.10;;;;;;;5.15;100.00;102810.03;5044218;28;20032;-70
2022/10/19 02:01:35;;;;;;;0.10;0.10;;;;;;;5.03;100.00;102781.91;5031323;28;20025;-71
2022/10/19 02:04:02;;;;;;;0.10;0.10;;;;;;;5.14;100.00;102790.50;5034145;28;20066;-71
2022/10/19 02:06:28;;;;;;;0.10;0.10;;;;;;;5.30;100.00;102820.31;5043831;28;20039;-71
2022/10/19 02:08:54;;;;;;;0.10;0.10;;;;;;;5.06;100.00;102795.13;5051049;28;20392;-71
2022/10/19 02:11:21;;;;;;;0.10;0.10;;;;;;;5.01;100.00;102797.91;5043395;28;20024;-71
2022/10/19 02:13:50;;;;;;;0.10;0.10;;;;;;;5.09;100.00;102805.69;5057664;28;20031;-71
2022/10/19 02:16:24;;;;;;;0.10;0.10;;;;;;;5.16;100.00;102809.13;5063015;28;20032;-71
2022/10/19 02:18:50;;;;;;;0.10;0.10;;;;;;;5.21;100.00;102810.75;5046609;28;20193;-71
2022/10/19 02:21:16;;;;;;;0.10;0.10;;;;;;;5.04;100.00;102791.59;5045628;28;20029;-71
2022/10/19 02:23:42;;;;;;;0.08;0.08;;;;;;;5.03;100.00;102806.72;5034361;28;20032;-71
2022/10/19 02:26:07;;;;;;;0.10;0.10;;;;;;;4.85;100.00;102793.84;5071289;28;20028;-71
2022/10/19 02:28:33;;;;;;;0.10;0.10;;;;;;;4.95;100.00;102801.56;5051161;28;20059;-72
2022/10/19 02:30:58;;;;;;;0.10;0.10;;;;;;;4.96;100.00;102799.78;5032835;28;20496;-71
2022/10/19 02:33:24;;;;;;;0.10;0.10;;;;;;;4.96;100.00;102799.78;5056452;28;20028;-72
2022/10/19 02:35:49;;;;;;;0.08;0.08;;;;;;;4.90;100.00;102787.50;5031938;28;20051;-71
2022/10/19 02:38:18;;;;;;;0.10;0.10;;;;;;;5.01;100.00;102791.72;5068326;28;20050;-71
2022/10/19 02:41:04;;;;;;;0.10;0.10;;;;;;;4.99;100.00;102788.19;5054736;28;20029;-71
2022/10/19 02:43:31;;;;;;;0.00;0.00;;;;;;;4.97;100.00;102782.91;5048643;28;20420;-72
2022/10/19 02:46:05;;;;;;;0.10;0.10;;;;;;;4.88;100.00;102778.66;5049141;28;20028;-71
2022/10/19 02:48:32;;;;;;;0.10;0.10;;;;;;;4.87;100.00;102778.72;5048787;28;20020;-71
2022/10/19 02:50:57;;;;;;;0.10;0.10;;;;;;;4.87;100.00;102774.25;5047980;28;20761;-71
2022/10/19 02:53:23;;;;;;;0.10;0.10;;;;;;;4.80;100.00;102767.31;5065003;28;20078;-71
2022/10/19 02:55:48;;;;;;;0.10;0.10;;;;;;;4.58;100.00;102743.84;5043422;28;20067;-71
2022/10/19 02:58:14;;;;;;;0.10;0.10;;;;;;;4.70;100.00;102758.66;5042870;28;20029;-71
2022/10/19 03:00:39;;;;;;;0.00;0.00;;;;;;;4.83;100.00;102771.69;5049047;28;20024;-71
2022/10/19 03:03:05;;;;;;;0.10;0.10;;;;;;;4.77;100.00;102778.91;5064388;28;20047;-71
2022/10/19 03:05:30;;;;;;;0.10;0.10;;;;;;;4.70;100.00;102766.63;5060958;28;20109;-71
2022/10/19 03:07:55;;;;;;;0.10;0.10;;;;;;;4.64;100.00;102753.47;5047469;28;20063;-71
2022/10/19 03:10:21;;;;;;;0.10;0.10;;;;;;;4.78;100.00;102774.44;5047438;28;20064;-71
2022/10/19 03:12:46;;;;;;;0.10;0.10;;;;;;;4.66;100.00;102778.25;5063345;28;20373;-71
2022/10/19 03:15:16;;;;;;;0.13;0.13;;;;;;;4.48;100.00;102776.88;5063082;28;20052;-71
2022/10/19 03:17:41;;;;;;;0.10;0.10;;;;;;;4.37;100.00;102757.59;5065091;28;20074;-71
2022/10/19 03:20:07;;;;;;;0.10;0.10;;;;;;;4.29;100.00;102763.09;5049332;28;20376;-71
2022/10/19 03:22:32;;;;;;;0.10;0.10;;;;;;;4.38;100.00;102773.50;5065548;28;20051;-71
2022/10/19 03:24:58;;;;;;;0.10;0.10;;;;;;;4.38;100.00;102778.84;5064283;28;20480;-71
2022/10/19 03:27:23;;;;;;;0.10;0.10;;;;;;;4.38;100.00;102767.34;5065319;28;20111;-71
2022/10/19 03:29:48;;;;;;;0.10;0.10;;;;;;;4.20;100.00;102735.78;5032839;28;20031;-72
2022/10/19 03:32:14;;;;;;;0.10;0.10;;;;;;;4.21;100.00;102736.66;5046088;28;20116;-73
2022/10/19 03:34:39;;;;;;;0.10;0.10;;;;;;;4.36;100.00;102772.69;5064503;28;20020;-72
2022/10/19 03:37:05;;;;;;;0.10;0.10;;;;;;;4.29;100.00;102760.44;5064467;28;20068;-72
2022/10/19 03:39:30;;;;;;;0.10;0.10;;;;;;;4.36;100.00;102764.72;5062066;28;20031;-72
2022/10/19 03:41:55;;;;;;;0.15;0.15;;;;;;;4.48;100.00;102759.13;5066237;28;20047;-72
2022/10/19 03:44:21;;;;;;;0.10;0.10;;;;;;;4.64;100.00;102761.44;5060616;28;20366;-72
2022/10/19 03:46:46;;;;;;;0.10;0.10;;;;;;;4.63;100.00;102755.25;5063145;28;20027;-72
2022/10/19 03:49:13;;;;;;;0.30;0.30;;;;;;;4.52;100.00;102749.28;5064541;28;20056;-72
2022/10/19 03:51:39;;;;;;;0.10;0.10;;;;;;;4.48;100.00;102763.59;5060653;28;20090;-71
2022/10/19 03:54:06;;;;;;;0.10;0.10;;;;;;;4.39;100.00;102758.44;5047671;28;20500;-72
2022/10/19 03:56:32;;;;;;;0.10;0.10;;;;;;;4.35;100.00;102757.66;5061618;28;20032;-72
2022/10/19 03:58:59;;;;;;;0.10;0.10;;;;;;;4.32;100.00;102749.72;5047953;28;20028;-72
2022/10/19 04:01:27;;;;;;;0.10;0.10;;;;;;;4.30;100.00;102760.38;5058090;28;20024;-72
2022/10/19 04:03:54;;;;;;;0.13;0.13;;;;;;;4.17;100.00;102738.50;5043748;28;20472;-72
2022/10/19 04:06:23;;;;;;;0.10;0.10;;;;;;;4.27;100.00;102752.47;5045427;28;20040;-72
2022/10/19 04:08:48;;;;;;;0.10;0.10;;;;;;;4.34;100.00;102759.41;5064650;28;22181;-72
2022/10/19 04:11:15;;;;;;;0.10;0.10;;;;;;;4.35;100.00;102761.16;5069395;28;20553;-72
2022/10/19 04:13:41;;;;;;;0.10;0.10;;;;;;;4.33;100.00;102756.81;5044584;28;20024;-72
2022/10/19 04:16:06;;;;;;;0.10;0.10;;;;;;;4.28;100.00;102756.88;5065394;28;20035;-72
2022/10/19 04:18:32;;;;;;;0.10;0.10;;;;;;;4.23;100.00;102756.13;5068606;28;20024;-72
2022/10/19 04:21:02;;;;;;;0.00;0.00;;;;;;;4.21;100.00;102765.91;5047896;28;20028;-72
2022/10/19 04:23:30;;;;;;;0.10;0.10;;;;;;;4.20;100.00;102766.81;5048586;28;20037;-72
2022/10/19 04:26:03;;;;;;;0.10;0.10;;;;;;;4.25;100.00;102767.56;5062937;28;20115;-72
2022/10/19 04:28:29;;;;;;;0.10;0.10;;;;;;;4.22;100.00;102766.78;5062834;28;20067;-72
2022/10/19 04:30:54;;;;;;;0.10;0.10;;;;;;;4.11;100.00;102754.56;5047137;28;20059;-72
2022/10/19 04:33:20;;;;;;;0.10;0.10;;;;;;;4.20;100.00;102766.81;5045612;28;20405;-72
2022/10/19 04:35:45;;;;;;;0.10;0.10;;;;;;;4.20;100.00;102767.69;5063898;28;20028;-72
2022/10/19 04:38:10;;;;;;;0.30;0.10;;;;;;;4.17;100.00;102769.53;5064368;28;20033;-72
2022/10/19 04:40:36;;;;;;;0.10;0.10;;;;;;;4.24;100.00;102773.78;5043101;28;20769;-71
2022/10/19 04:43:02;;;;;;;0.10;0.10;;;;;;;4.29;100.00;102771.06;5062716;28;20040;-71
2022/10/19 04:45:27;;;;;;;0.10;0.10;;;;;;;4.24;100.00;102752.53;5045791;28;20040;-70
2022/10/19 04:47:55;;;;;;;0.10;0.10;;;;;;;4.42;100.00;102769.03;5045112;28;20043;-70
2022/10/19 04:50:21;;;;;;;0.10;0.10;;;;;;;4.39;100.00;102772.59;5064576;28;20483;-73
2022/10/19 04:52:46;;;;;;;0.10;0.10;;;;;;;4.29;100.00;102763.94;5064894;28;20047;-72
2022/10/19 04:55:12;;;;;;;0.10;0.10;;;;;;;4.34;100.00;102767.41;5029838;28;20024;-73
2022/10/19 04:57:37;;;;;;;0.10;0.10;;;;;;;4.28;100.00;102758.69;5049722;28;20028;-72
2022/10/19 05:00:03;;;;;;;0.43;0.43;;;;;;;4.15;100.00;102747.41;5044325;28;20033;-71
2022/10/19 05:02:28;;;;;;;0.10;0.10;;;;;;;4.21;100.00;102768.56;5042605;28;20037;-70
2022/10/19 05:04:54;;;;;;;0.10;0.10;;;;;;;4.08;100.00;102767.94;5059433;28;20197;-70
2022/10/19 05:07:19;;;;;;;0.00;0.00;;;;;;;3.90;100.00;102742.59;5062704;28;20055;-70
2022/10/19 05:09:44;;;;;;;0.10;0.10;;;;;;;3.96;100.00;102757.53;5066045;28;20020;-70
2022/10/19 05:12:10;;;;;;;0.10;0.10;;;;;;;3.98;100.00;102761.03;5070617;28;20036;-70
2022/10/19 05:14:35;;;;;;;0.10;0.10;;;;;;;3.97;100.00;102756.63;5048431;28;20020;-70
2022/10/19 05:17:00;;;;;;;0.10;0.10;;;;;;;3.89;100.00;102744.34;5054484;28;20032;-70
2022/10/19 05:19:26;;;;;;;0.00;0.00;;;;;;;3.96;100.00;102746.91;5050575;28;20434;-70
2022/10/19 05:21:51;;;;;;;0.10;0.10;;;;;;;3.86;100.00;102732.91;5051575;28;20059;-71
2022/10/19 05:24:16;;;;;;;0.10;0.10;;;;;;;3.91;100.00;102741.69;5061729;28;20064;-71
2022/10/19 05:26:41;;;;;;;0.10;0.10;;;;;;;4.01;100.00;102756.53;5047023;28;20479;-70
2022/10/19 05:29:10;;;;;;;0.10;0.10;;;;;;;3.75;100.00;102714.53;5043354;28;20029;-71
2022/10/19 05:31:36;;;;;;;0.10;0.10;;;;;;;3.88;100.00;102739.94;5043780;28;20038;-71
2022/10/19 05:34:02;;;;;;;0.10;0.10;;;;;;;3.94;100.00;102759.34;5029457;28;20024;-71
2022/10/19 05:36:33;;;;;;;0.10;0.10;;;;;;;3.93;100.00;102747.84;5045451;28;20123;-71
2022/10/19 05:39:01;;;;;;;0.10;0.10;;;;;;;3.85;100.00;102742.66;5065415;28;20037;-71
2022/10/19 05:41:26;;;;;;;0.10;0.10;;;;;;;3.89;100.00;102752.31;5042975;28;20028;-70
2022/10/19 05:43:54;;;;;;;0.10;0.10;;;;;;;3.90;100.00;102747.91;5044975;28;20078;-71
2022/10/19 05:46:19;;;;;;;0.10;0.10;;;;;;;3.77;100.00;102746.34;5047303;28;20028;-70
2022/10/19 05:48:45;;;;;;;0.10;0.10;;;;;;;3.79;100.00;102747.22;5047614;28;20034;-71
2022/10/19 05:51:17;;;;;;;0.10;0.10;;;;;;;3.67;100.00;102749.22;5044543;28;20032;-71
2022/10/19 05:53:42;;;;;;;0.10;0.10;;;;;;;3.61;100.00;102738.69;5044261;28;20153;-70
2022/10/19 05:56:10;;;;;;;0.20;0.20;;;;;;;3.41;100.00;102718.69;5048620;28;20399;-70
2022/10/19 05:58:35;;;;;;;0.10;0.10;;;;;;;3.46;100.00;102731.88;5044523;28;20059;-70
2022/10/19 06:01:01;;;;;;;0.10;0.10;;;;;;;3.50;100.00;102738.88;5034876;28;20479;-71
2022/10/19 06:03:27;;;;;;;0.10;0.10;;;;;;;3.52;100.00;102731.75;5047428;28;20086;-70
2022/10/19 06:05:53;;;;;;;0.10;0.10;;;;;;;3.60;100.00;102737.78;5053357;28;20032;-70
2022/10/19 06:08:20;;;;;;;0.10;0.10;;;;;;;3.65;100.00;102736.84;5072829;28;20406;-71
2022/10/19 06:10:46;;;;;;;0.10;0.10;;;;;;;3.64;100.00;102735.97;5047466;28;20448;-70
2022/10/19 06:13:12;;;;;;;0.10;0.10;;;;;;;3.56;100.00;102729.91;5047333;28;20036;-71
2022/10/19 06:15:39;;;;;;;0.10;0.10;;;;;;;3.26;100.00;102709.19;5065127;28;20028;-71
2022/10/19 06:18:11;;;;;;;0.10;0.10;;;;;;;3.30;100.00;102726.81;5053750;28;20028;-71
2022/10/19 06:20:38;;;;;;;0.10;0.10;;;;;;;3.32;100.00;102739.16;5061627;28;20024;-70
2022/10/19 06:23:04;;;;;;;0.10;0.10;;;;;;;3.36;100.00;102746.19;5047649;28;20032;-71
2022/10/19 06:25:31;;;;;;;0.10;0.10;;;;;;;3.45;100.00;102748.69;5065275;28;20192;-71
2022/10/19 06:27:56;;;;;;;0.10;0.10;;;;;;;3.50;100.00;102749.50;5066922;28;20032;-71
2022/10/19 06:30:22;;;;;;;0.10;0.10;;;;;;;3.45;100.00;102728.31;5049334;28;20036;-71
2022/10/19 06:32:47;;;;;;;0.10;0.10;;;;;;;3.67;100.00;102737.69;5038366;28;20039;-70
2022/10/19 06:35:12;;;;;;;0.10;0.10;;;;;;;3.77;100.00;102733.97;5045078;28;20048;-71
2022/10/19 06:37:38;;;;;;;0.10;0.10;;;;;;;3.66;100.00;102707.59;5047269;28;20422;-70
2022/10/19 06:40:03;;;;;;;0.10;0.10;;;;;;;3.67;100.00;102705.81;5048700;28;20032;-71
2022/10/19 06:42:29;;;;;;;0.10;0.10;;;;;;;3.69;100.00;102714.63;5049071;28;20111;-71
2022/10/19 06:44:54;;;;;;;0.10;0.10;;;;;;;3.88;100.00;102744.41;5061565;28;20472;-71
2022/10/19 06:47:19;;;;;;;0.08;0.08;;;;;;;3.92;100.00;102738.13;5062996;28;20105;-71
2022/10/19 06:49:45;;;;;;;0.10;0.10;;;;;;;3.97;100.00;102722.97;5069279;28;20527;-71
2022/10/19 06:52:10;;;;;;;0.20;0.10;;;;;;;4.14;100.00;102722.59;5050447;28;20063;-70
2022/10/19 06:54:35;;;;;;;0.10;0.10;;;;;;;4.13;100.00;102720.84;5066267;28;20086;-71
2022/10/19 06:57:00;;;;;;;0.10;0.10;;;;;;;4.15;100.00;102716.38;5067634;28;20032;-71
2022/10/19 06:59:26;;;;;;;0.10;0.10;;;;;;;4.32;100.00;102733.78;5065022;28;20083;-71
2022/10/19 07:01:51;;;;;;;0.10;0.10;;;;;;;4.24;100.00;102704.66;5042687;28;20496;-71
2022/10/19 07:04:16;;;;;;;0.05;0.05;;;;;;;4.53;100.00;102728.91;5046627;28;20060;-71
2022/10/19 07:06:42;;;;;;;0.10;0.10;;;;;;;4.62;100.00;102734.88;5064901;28;20472;-71
2022/10/19 07:09:07;;;;;;;0.10;0.10;;;;;;;4.62;100.00;102718.91;5062902;28;20060;-71
2022/10/19 07:11:32;;;;;;;0.10;0.10;;;;;;;4.95;100.00;102744.78;5044537;28;20085;-71
2022/10/19 07:13:57;;;;;;;0.10;0.10;;;;;;;5.17;100.00;102744.25;5051733;28;20070;-71
2022/10/19 07:16:23;;;;;;;0.10;0.10;;;;;;;5.37;100.00;102754.44;5034093;28;20032;-71
2022/10/19 07:18:52;;;;;;;0.15;0.15;;;;;;;5.40;100.00;102720.63;5050135;28;20064;-71
2022/10/19 07:21:19;;;;;;;0.08;0.08;;;;;;;5.73;100.00;102745.50;5047091;28;20059;-71
2022/10/19 07:23:45;;;;;;;0.10;0.10;;;;;;;5.88;100.00;102739.78;5049536;28;20028;-71
2022/10/19 07:26:13;;;;;;;0.10;0.10;;;;;;;6.04;100.00;102742.03;5048365;28;20082;-71
2022/10/19 07:28:40;;;;;;;0.10;0.10;;;;;;;6.03;100.00;102724.28;5048808;28;20464;-71
2022/10/19 07:31:08;;;;;;;0.10;0.10;;;;;;;6.10;100.00;102715.22;5046299;28;20413;-71
2022/10/19 07:33:33;;;;;;;0.10;0.10;;;;;;;6.20;100.00;102708.69;5048965;28;20065;-71
2022/10/19 07:36:00;;;;;;;0.10;0.10;;;;;;;6.58;100.00;102738.69;5066659;28;20025;-71
2022/10/19 07:38:25;;;;;;;0.10;0.10;;;;;;;6.81;100.00;102744.22;5056755;28;20032;-70
2022/10/19 07:40:50;;;;;;;0.13;0.13;;;;;;;7.04;100.00;102728.34;5060250;28;20043;-71
2022/10/19 07:43:16;;;;;;;0.10;0.10;;;;;;;7.27;100.00;102720.50;5032261;28;20068;-70
2022/10/19 07:45:41;;;;;;;0.10;0.10;;;;;;;7.53;100.00;102722.28;5060780;28;20149;-70
2022/10/19 07:48:06;;;;;;;0.10;0.10;;;;;;;7.70;100.00;102719.00;5064272;28;20036;-69
2022/10/19 07:50:32;;;;;;;0.10;0.10;;;;;;;7.74;100.00;102696.56;5067968;28;20067;-68
2022/10/19 07:52:57;;;;;;;0.10;0.10;;;;;;;8.05;100.00;102727.56;5048353;28;20042;-69
2022/10/19 07:55:22;;;;;;;0.10;0.10;;;;;;;8.20;100.00;102727.91;5039712;28;20031;-69
2022/10/19 07:57:48;;;;;;;0.10;0.10;;;;;;;8.31;100.00;102731.06;5063677;28;20035;-68
2022/10/19 08:00:15;;;;;;;0.10;0.10;;;;;;;8.46;100.00;102737.63;5064426;28;20039;-69
2022/10/19 08:02:41;;;;;;;0.10;0.10;;;;;;;8.60;100.00;102742.47;5057632;28;20055;-69
2022/10/19 08:05:07;;;;;;;0.10;0.10;;;;;;;8.76;100.00;102739.19;5062783;28;20138;-69
2022/10/19 08:07:32;;;;;;;0.08;0.08;;;;;;;8.93;100.00;102750.09;5032724;28;20152;-69
2022/10/19 08:09:58;;;;;;;0.10;0.10;;;;;;;9.07;100.00;102743.31;5065771;28;20107;-69
2022/10/19 08:12:23;;;;;;;0.10;0.10;;;;;;;9.21;100.00;102746.28;5061591;28;20151;-69
2022/10/19 08:14:48;;;;;;;0.10;0.10;;;;;;;9.30;100.00;102740.53;5061559;28;20043;-69
2022/10/19 08:17:16;;;;;;;0.10;0.10;;;;;;;9.29;100.00;102714.69;5059599;28;20602;-70
2022/10/19 08:19:42;;;;;;;0.10;0.10;;;;;;;9.59;100.00;102734.88;5041874;28;20391;-70
2022/10/19 08:22:07;;;;;;;0.08;0.08;;;;;;;9.54;100.00;102693.97;5062333;28;20033;-70
2022/10/19 08:24:33;;;;;;;0.10;0.10;;;;;;;9.90;100.00;102715.63;5070518;28;20028;-71
2022/10/19 08:27:01;;;;;;;0.05;0.05;;;;;;;9.97;100.00;102720.69;5063603;28;20093;-70
2022/10/19 08:29:26;;;;;;;0.10;0.10;;;;;;;10.05;100.00;102715.84;5056924;28;20044;-70
2022/10/19 08:31:52;;;;;;;0.10;0.10;;;;;;;10.16;100.00;102715.34;5059010;28;20025;-70
2022/10/19 08:34:17;;;;;;;0.10;0.10;;;;;;;10.18;100.00;102713.47;5062286;28;20070;-72
2022/10/19 08:36:42;;;;;;;0.10;0.10;;;;;;;10.28;100.00;102698.69;5063657;28;20024;-70
2022/10/19 08:39:08;;;;;;;0.10;0.10;;;;;;;10.45;100.00;102687.19;5062302;28;20082;-70
2022/10/19 08:41:58;;;;;;;0.10;0.10;;;;;;;10.75;100.00;102713.50;5055312;28;20028;-69
2022/10/19 08:44:40;;;;;;;0.10;0.10;;;;;;;10.76;100.00;102711.69;5067923;28;20741;-73
2022/10/19 08:47:15;;;;;;;0.10;0.10;;;;;;;11.08;100.00;102709.22;5049674;28;20380;-70
2022/10/19 08:49:40;;;;;;;0.10;0.10;;;;;;;11.14;100.00;102699.97;5062634;28;20033;-71
2022/10/19 08:52:16;;;;;;;0.10;0.10;;;;;;;11.41;100.00;102721.88;5046750;28;20043;-70
2022/10/19 08:54:55;;;;;;;0.10;0.10;;;;;;;11.46;100.00;102705.53;5045742;28;20040;-70
2022/10/19 08:57:30;;;;;;;0.00;0.00;;;;;;;11.50;100.00;102694.53;5041518;28;20039;-73
2022/10/19 09:00:17;;;;;;;0.10;0.10;;;;;;;11.48;100.00;102674.91;5043146;28;20535;-75
2022/10/19 09:03:00;;;;;;;0.10;0.10;;;;;;;11.73;100.00;102692.44;5043634;28;20034;-71
2022/10/19 09:05:40;;;;;;;0.10;0.10;;;;;;;12.02;100.00;102687.34;5069874;28;20036;-69
2022/10/19 09:08:08;;;;;;;0.13;0.13;;;;;;;12.11;100.00;102688.66;5061208;28;20036;-70
2022/10/19 09:10:37;;;;;;;0.03;0.03;;;;;;;12.24;100.00;102687.03;5042053;28;20028;-70
2022/10/19 09:13:09;;;;;;;0.08;0.08;;;;;;;12.43;100.00;102683.31;5052546;28;20781;-71
2022/10/19 09:15:39;;;;;;;0.10;0.10;;;;;;;12.58;99.29;102681.56;5042153;28;20028;-73
2022/10/19 09:18:10;;;;;;;0.10;0.10;;;;;;;12.57;96.43;102685.22;5046774;28;20032;-70
2022/10/19 09:20:38;;;;;;;0.10;0.10;;;;;;;12.87;96.30;102682.56;5048486;28;20119;-70
2022/10/19 09:23:17;;;;;;;0.10;0.10;;;;;;;13.22;95.22;102676.06;5044295;28;20025;-70
2022/10/19 09:25:42;;;;;;;0.10;0.10;;;;;;;13.26;93.11;102657.88;5048989;28;20029;-74
2022/10/19 09:28:35;;;;;;;0.10;0.10;;;;;;;13.22;90.94;102675.19;5040252;28;20024;-75
2022/10/19 09:31:00;;;;;;;0.03;0.03;;;;;;;13.46;91.72;102670.19;5046613;28;20063;-70
2022/10/19 09:33:31;;;;;;;0.00;0.00;;;;;;;13.34;88.27;102667.22;5047075;28;20112;-72
2022/10/19 09:35:58;;;;;;;0.10;0.10;;;;;;;13.67;86.71;102662.56;5046010;28;20035;-70
2022/10/19 09:38:26;;;;;;;0.00;0.00;;;;;;;13.59;84.84;102648.72;5067551;28;20022;-74
2022/10/19 09:40:51;;;;;;;0.00;0.00;;;;;;;13.65;83.33;102657.28;5049644;28;20024;-71
2022/10/19 09:43:20;;;;;;;0.10;0.10;;;;;;;13.75;82.95;102656.72;5059493;28;20533;-72
2022/10/19 09:45:48;;;;;;;0.00;0.00;;;;;;;13.78;83.76;102643.00;5049989;28;20552;-74
2022/10/19 09:48:38;;;;;;;0.00;0.00;;;;;;;14.02;83.72;102632.50;5048383;28;20033;-70
2022/10/19 09:51:11;;;;;;;0.03;0.03;;;;;;;13.73;81.90;102648.72;5032299;28;20490;-77
2022/10/19 09:53:37;;;;;;;0.10;0.10;;;;;;;13.96;80.82;102635.59;5031468;28;20028;-75
2022/10/19 09:56:05;;;;;;;0.00;0.00;;;;;;;14.05;80.13;102615.22;5060830;28;20033;-75
2022/10/19 09:58:31;;;;;;;0.00;0.00;;;;;;;14.37;80.83;102640.16;5048204;28;20033;-76
2022/10/19 10:00:56;;;;;;;0.00;0.00;;;;;;;14.52;80.17;102629.28;5028377;28;20031;-76
2022/10/19 10:03:39;;;;;;;0.10;0.10;;;;;;;14.74;80.14;102663.03;5048426;28;20028;-73
2022/10/19 10:06:22;;;;;;;0.00;0.00;;;;;;;14.87;77.38;102663.97;5044618;28;20439;-74
2022/10/19 10:08:51;;;;;;;0.10;0.10;;;;;;;15.10;78.20;102650.72;5072319;28;20059;-71
2022/10/19 10:11:28;;;;;;;0.00;0.00;;;;;;;15.19;78.94;102660.03;5046281;28;20035;-74
2022/10/19 10:13:55;;;;;;;0.10;0.10;;;;;;;15.26;76.55;102655.94;5051092;28;20024;-72
2022/10/19 10:16:22;;;;;;;0.05;0.05;;;;;;;14.98;76.02;102649.72;5046421;28;20123;-72
2022/10/19 10:18:59;;;;;;;0.10;0.10;;;;;;;15.00;75.57;102651.34;5047951;28;20061;-74
2022/10/19 10:21:30;;;;;;;0.00;0.00;;;;;;;15.02;76.35;102648.53;5063811;28;20099;-74
2022/10/19 10:24:09;;;;;;;0.00;0.00;;;;;;;15.43;75.96;102643.94;5053299;28;20033;-72
2022/10/19 10:26:44;;;;;;;0.00;0.00;;;;;;;15.36;73.87;102637.22;5050907;28;20039;-71
2022/10/19 10:29:29;;;;;;;0.00;0.00;;;;;;;15.59;73.06;102627.50;5080202;28;20016;-71
2022/10/19 10:32:04;;;;;;;0.00;0.00;;;;;;;14.99;73.24;102613.59;5047273;28;20036;-77
2022/10/19 10:34:36;;;;;;;0.10;0.10;;;;;;;15.29;74.05;102618.69;5033354;28;20028;-72
2022/10/19 10:37:03;;;;;;;0.00;0.00;;;;;;;15.18;74.34;102625.84;5047871;28;20032;-71
2022/10/19 10:39:29;;;;;;;0.10;0.10;;;;;;;15.32;73.84;102611.34;5041090;28;20035;-70
2022/10/19 10:41:58;;;;;;;0.05;0.05;;;;;;;15.59;73.29;102605.84;5049588;28;20183;-73
2022/10/19 10:44:28;;;;;;;0.00;0.00;;;;;;;15.56;71.93;102608.75;5050591;28;20031;-74
2022/10/19 10:47:02;;;;;;;0.10;0.10;;;;;;;15.89;70.55;102573.00;5043449;28;20040;-73
2022/10/19 10:49:33;;;;;;;0.00;0.00;;;;;;;16.03;70.45;102593.66;5045975;28;20020;-72
2022/10/19 10:52:15;;;;;;;0.10;0.10;;;;;;;16.13;69.02;102579.44;5040960;28;20040;-72
2022/10/19 10:54:56;;;;;;;0.00;0.00;;;;;;;16.06;67.50;102597.13;5049062;28;20158;-74
2022/10/19 10:57:22;;;;;;;0.00;0.00;;;;;;;16.25;68.74;102593.91;5045681;28;20036;-72
2022/10/19 10:59:53;;;;;;;0.10;0.10;;;;;;;16.27;70.33;102606.34;5045073;28;20082;-71
2022/10/19 11:02:25;;;;;;;0.10;0.10;;;;;;;16.25;68.08;102605.59;5065759;28;20089;-72
2022/10/19 11:04:56;;;;;;;0.10;0.10;;;;;;;16.50;67.81;102606.47;5068146;28;20040;-73
2022/10/19 11:07:24;;;;;;;0.10;0.10;;;;;;;16.22;64.50;102583.28;5046216;28;20378;-73
2022/10/19 11:09:56;;;;;;;0.00;0.00;;;;;;;16.72;64.92;102553.31;5047919;28;20028;-75
2022/10/19 11:12:35;;;;;;;0.00;0.00;;;;;;;17.38;63.81;102569.03;5050778;28;20457;-72
2022/10/19 11:15:10;;;;;;;0.08;0.08;;;;;;;17.87;60.78;102579.63;5044267;28;20036;-74
2022/10/19 11:17:37;;;;;;;0.10;0.10;;;;;;;18.23;54.62;102550.44;5063186;28;20032;-75
2022/10/19 11:20:05;;;;;;;0.00;0.00;;;;;;;18.99;56.53;102563.97;5043814;28;20481;-74
2022/10/19 11:22:39;;;;;;;0.10;0.10;;;;;;;18.55;54.67;102549.56;5047707;28;20028;-74
2022/10/19 11:25:20;;;;;;;0.00;0.00;;;;;;;19.44;53.82;102568.25;5032689;28;20379;-72
2022/10/19 11:28:17;;;;;;;0.10;0.10;;;;;;;18.72;53.17;102567.16;5058937;28;20032;-75
2022/10/19 11:30:57;;;;;;;0.10;0.10;;;;;;;18.90;52.25;102540.22;5016343;28;20062;-73